createdAt,value
2023-04-28T00:01:10.222Z,3.13
2023-04-28T00:06:13.952Z,3.20
2023-04-28T00:11:17.450Z,3.13
2023-04-28T00:16:23.745Z,3.47
2023-04-28T00:21:28.999Z,2.97
2023-04-28T00:26:32.501Z,3.40
2023-04-28T00:31:37.837Z,3.60
2023-04-28T00:36:41.394Z,3.53
2023-04-28T00:41:45.838Z,3.83
2023-04-28T00:46:52.195Z,3.30
2023-04-28T00:51:56.349Z,3.83
2023-04-28T00:57:00.960Z,3.60
2023-04-28T01:02:07.977Z,3.43
2023-04-28T01:07:13.100Z,3.80
2023-04-28T01:12:17.951Z,4.20
2023-04-28T01:17:23.232Z,4.77
2023-04-28T01:22:26.844Z,3.80
2023-04-28T01:27:36.778Z,4.03
2023-04-28T01:32:40.590Z,4.27
2023-04-28T01:37:44.903Z,3.97
2023-04-28T01:42:49.813Z,4.33
2023-04-28T01:47:53.029Z,4.17
2023-04-28T01:52:57.802Z,3.80
2023-04-28T01:58:04.289Z,4.07
2023-04-28T02:03:07.748Z,4.33
2023-04-28T02:08:12.479Z,4.67
2023-04-28T02:13:18.674Z,4.40
2023-04-28T02:18:22.679Z,4.50
2023-04-28T02:23:26.320Z,4.70
2023-04-28T02:28:31.393Z,4.73
2023-04-28T02:33:35.398Z,4.60
2023-04-28T02:38:38.945Z,5.30
2023-04-28T02:43:44.422Z,5.07
2023-04-28T02:48:48.111Z,5.10
2023-04-28T02:53:52.048Z,5.30
2023-04-28T02:58:57.085Z,5.50
2023-04-28T03:04:00.764Z,5.90
2023-04-28T03:09:05.007Z,5.40
2023-04-28T03:14:09.827Z,5.37
2023-04-28T03:19:13.612Z,5.73
2023-04-28T03:24:17.751Z,6.07
2023-04-28T03:29:25.718Z,5.70
2023-04-28T03:34:29.317Z,5.67
2023-04-28T03:39:34.820Z,6.10
2023-04-28T03:44:40.378Z,5.97
2023-04-28T03:49:44.226Z,6.20
2023-04-28T03:54:47.915Z,5.97
2023-04-28T03:59:53.177Z,6.70
2023-04-28T04:04:57.044Z,7.03
2023-04-28T04:10:03.916Z,6.50
2023-04-28T04:15:11.318Z,6.77
2023-04-28T04:20:15.036Z,6.33
2023-04-28T04:25:23.512Z,6.27
2023-04-28T04:30:28.759Z,6.13
2023-04-28T04:35:34.413Z,6.40
2023-04-28T04:40:38.398Z,6.50
2023-04-28T04:45:43.596Z,6.53
2023-04-28T04:50:47.105Z,7.23
2023-04-28T04:55:52.775Z,6.57
2023-04-28T05:00:57.968Z,6.57
2023-04-28T05:06:04.233Z,6.33
2023-04-28T05:11:10.257Z,6.20
2023-04-28T05:16:27.035Z,6.73
2023-04-28T05:21:30.574Z,6.93
2023-04-28T05:26:37.833Z,7.13
2023-04-28T05:31:55.501Z,6.97
2023-04-28T05:36:59.456Z,6.27
2023-04-28T05:42:07.352Z,6.87
2023-04-28T05:47:15.106Z,6.53
2023-04-28T05:52:21.342Z,6.13
2023-04-28T05:57:24.687Z,6.60
2023-04-28T06:02:33.931Z,6.53
2023-04-28T06:07:37.557Z,5.67
2023-04-28T06:12:40.900Z,6.07
2023-04-28T06:17:45.959Z,6.05
2023-04-28T06:22:49.451Z,5.80
2023-04-28T06:27:53.606Z,5.57
2023-04-28T06:33:00.305Z,5.60
2023-04-28T06:38:04.927Z,6.20
2023-04-28T06:43:08.465Z,6.13
2023-04-28T06:48:15.520Z,5.97
2023-04-28T06:53:23.141Z,6.30
2023-04-28T06:58:27.046Z,5.72
2023-04-28T07:03:35.100Z,5.72
2023-04-28T07:08:39.186Z,5.93
2023-04-28T07:13:42.839Z,6.10
2023-04-28T07:18:47.820Z,5.55
2023-04-28T07:23:51.937Z,5.60
2023-04-28T07:28:55.417Z,5.68
2023-04-28T07:34:13.295Z,5.35
2023-04-28T07:39:17.028Z,5.80
2023-04-28T07:44:20.779Z,6.20
2023-04-28T07:49:26.362Z,5.20
2023-04-28T07:54:29.666Z,5.43
2023-04-28T07:59:33.690Z,5.38
2023-04-28T08:04:40.120Z,5.18
2023-04-28T08:09:47.367Z,4.68
2023-04-28T08:14:50.953Z,5.10
2023-04-28T08:19:56.279Z,5.25
2023-04-28T08:25:00.212Z,4.60
2023-04-28T08:30:04.689Z,4.57
2023-04-28T08:35:11.941Z,4.50
2023-04-28T08:40:15.599Z,4.68
2023-04-28T08:45:18.970Z,4.22
2023-04-28T08:50:25.005Z,4.13
2023-04-28T08:55:28.911Z,3.63
2023-04-28T09:00:33.355Z,3.72
2023-04-28T09:05:38.243Z,4.10
2023-04-28T09:10:43.201Z,4.80
2023-04-28T09:15:46.555Z,4.43
2023-04-28T09:20:52.268Z,3.80
2023-04-28T09:26:01.078Z,5.20
2023-04-28T09:31:05.145Z,4.60
2023-04-28T09:36:10.770Z,4.90
2023-04-28T09:41:14.101Z,4.43
2023-04-28T09:46:30.574Z,5.40
2023-04-28T09:51:35.899Z,4.30
2023-04-28T09:56:41.391Z,5.18
2023-04-28T10:01:46.881Z,5.65
2023-04-28T10:06:52.271Z,5.82
2023-04-28T10:11:56.156Z,5.78
2023-04-28T10:17:00.953Z,4.80
2023-04-28T10:22:22.772Z,5.57
2023-04-28T10:27:32.117Z,5.15
2023-04-28T10:32:35.376Z,5.45
2023-04-28T10:38:10.450Z,4.95
2023-04-28T10:43:15.153Z,5.47
2023-04-28T10:48:18.461Z,5.85
2023-04-28T10:53:23.430Z,5.63
2023-04-28T10:58:42.303Z,5.97
2023-04-28T11:03:51.972Z,6.22
2023-04-28T11:09:00.693Z,6.25
2023-04-28T11:14:32.896Z,5.60
2023-04-28T11:19:38.223Z,5.28
2023-04-28T11:24:56.471Z,5.55
2023-04-28T11:30:02.343Z,5.40
2023-04-28T11:35:10.139Z,5.47
2023-04-28T11:40:19.438Z,5.25
2023-04-28T11:45:23.148Z,5.20
2023-04-28T11:50:37.342Z,4.97
2023-04-28T11:55:42.475Z,5.45
2023-04-28T12:00:47.555Z,5.20
2023-04-28T12:05:51.731Z,5.40
2023-04-28T12:16:39.467Z,4.75
2023-04-28T12:21:44.016Z,4.90
2023-04-28T12:26:48.206Z,5.00
2023-04-28T12:31:54.161Z,4.70
2023-04-28T12:36:57.868Z,4.60
2023-04-28T12:42:03.092Z,4.35
2023-04-28T12:47:09.323Z,4.18
2023-04-28T12:52:12.784Z,5.05
2023-04-28T12:57:17.015Z,4.82
2023-04-28T13:02:22.038Z,4.70
2023-04-28T13:07:26.756Z,4.60
2023-04-28T13:12:30.374Z,5.00
2023-04-28T13:17:35.520Z,4.85
2023-04-28T13:22:38.899Z,4.90
2023-04-28T13:27:43.489Z,4.28
2023-04-28T13:32:48.581Z,4.35
2023-04-28T13:37:56.782Z,4.43
2023-04-28T13:43:00.715Z,4.63
2023-04-28T13:48:06.038Z,4.13
2023-04-28T13:53:09.331Z,3.78
2023-04-28T13:58:12.573Z,3.40
2023-04-28T14:03:17.431Z,3.20
2023-04-28T14:08:23.255Z,3.20
2023-04-28T14:13:27.100Z,3.25
2023-04-28T14:18:33.853Z,2.97
2023-04-28T14:23:37.954Z,3.00
2023-04-28T14:28:45.068Z,3.20
2023-04-28T14:33:50.150Z,4.25
2023-04-28T14:38:53.514Z,3.08
2023-04-28T14:43:56.882Z,3.28
2023-04-28T14:49:02.656Z,2.75
2023-04-28T14:54:06.577Z,2.92
2023-04-28T14:59:10.506Z,3.08
2023-04-28T15:04:16.954Z,3.47
2023-04-28T15:09:20.629Z,3.65
2023-04-28T15:14:23.790Z,3.38
2023-04-28T15:19:28.412Z,3.63
2023-04-28T15:24:35.775Z,3.60
2023-04-28T15:29:39.554Z,3.90
2023-04-28T15:34:44.511Z,3.35
2023-04-28T15:39:47.848Z,3.00
2023-04-28T15:44:51.590Z,3.35
2023-04-28T15:49:56.546Z,3.20
2023-04-28T15:55:00.985Z,3.25
2023-04-28T16:00:04.803Z,3.30
2023-04-28T16:05:20.107Z,3.20
2023-04-28T16:10:23.412Z,3.28
2023-04-28T16:15:26.998Z,3.03
2023-04-28T16:20:31.739Z,3.40
2023-04-28T16:25:35.439Z,3.08
2023-04-28T16:30:38.868Z,3.38
2023-04-28T16:35:44.783Z,2.75
2023-04-28T16:40:47.978Z,3.08
2023-04-28T16:45:51.157Z,3.33
2023-04-28T16:50:56.865Z,3.28
2023-04-28T16:55:59.967Z,3.30
2023-04-28T17:01:06.795Z,3.75
2023-04-28T17:06:12.454Z,3.85
2023-04-28T17:11:18.908Z,4.15
2023-04-28T17:16:22.416Z,3.92
2023-04-28T17:21:29.298Z,4.43
2023-04-28T17:26:33.763Z,4.65
2023-04-28T17:31:38.939Z,4.32
2023-04-28T17:36:44.460Z,4.63
2023-04-28T17:41:47.804Z,4.28
2023-04-28T17:46:52.231Z,4.25
2023-04-28T17:52:02.446Z,4.60
2023-04-28T17:57:06.172Z,4.93
2023-04-28T18:02:11.290Z,5.00
2023-04-28T18:07:16.586Z,5.07
2023-04-28T18:12:19.874Z,5.30
2023-04-28T18:17:23.387Z,4.63
2023-04-28T18:22:28.134Z,4.47
2023-04-28T18:27:34.308Z,5.10
2023-04-28T18:32:37.733Z,5.20
2023-04-28T18:37:46.166Z,5.30
2023-04-28T18:42:49.796Z,5.22
2023-04-28T18:47:53.081Z,5.22
2023-04-28T18:52:57.889Z,5.60
2023-04-28T18:58:02.382Z,5.22
2023-04-28T19:03:05.910Z,5.90
2023-04-28T19:08:12.006Z,6.03
2023-04-28T19:13:15.465Z,6.10
2023-04-28T19:18:19.479Z,6.50
2023-04-28T19:23:24.365Z,6.40
2023-04-28T19:28:29.297Z,6.18
2023-04-28T19:33:32.954Z,6.75
2023-04-28T19:38:40.457Z,6.82
2023-04-28T19:43:44.277Z,6.75
2023-04-28T19:48:47.762Z,7.15
2023-04-28T19:53:52.640Z,6.93
2023-04-28T19:58:55.980Z,6.70
2023-04-28T20:04:00.583Z,7.22
2023-04-28T20:09:06.045Z,7.30
2023-04-28T20:14:09.768Z,6.68
2023-04-28T20:19:12.907Z,7.20
2023-04-28T20:24:17.494Z,7.90
2023-04-28T20:29:20.813Z,7.30
2023-04-28T20:34:24.091Z,7.68
2023-04-28T20:39:29.516Z,7.93
2023-04-28T20:44:32.861Z,8.80
2023-04-28T20:49:36.561Z,9.02
2023-04-28T20:54:43.627Z,9.15
2023-04-28T20:59:46.867Z,9.18
2023-04-28T21:04:50.304Z,9.30
2023-04-28T21:09:54.902Z,9.30
2023-04-28T21:14:59.642Z,9.32
2023-04-28T21:20:03.601Z,8.98
2023-04-28T21:25:09.569Z,9.50
2023-04-28T21:30:14.762Z,10.48
2023-04-28T21:35:18.227Z,9.32
2023-04-28T21:40:23.121Z,8.25
2023-04-28T21:45:26.668Z,9.18
2023-04-28T21:50:29.944Z,9.25
2023-04-28T21:55:34.540Z,8.98
2023-04-28T22:00:40.978Z,9.23
2023-04-28T22:05:45.474Z,8.70
2023-04-28T22:10:50.086Z,9.35
2023-04-28T22:15:53.838Z,9.40
2023-04-28T22:20:57.116Z,9.00
2023-04-28T22:26:01.895Z,10.23
2023-04-28T22:31:05.219Z,9.60
2023-04-28T22:36:09.028Z,10.88
2023-04-28T22:41:13.617Z,11.35
2023-04-28T22:46:16.752Z,10.50
2023-04-28T22:51:20.429Z,9.98
2023-04-28T22:56:24.940Z,9.55
2023-04-28T23:01:28.209Z,9.98
2023-04-28T23:06:32.211Z,9.70
2023-04-28T23:11:36.735Z,8.85
2023-04-28T23:16:40.192Z,9.70
2023-04-28T23:21:43.346Z,10.05
2023-04-28T23:26:48.078Z,9.00
2023-04-28T23:31:54.684Z,8.93
2023-04-28T23:36:58.421Z,9.50
2023-04-28T23:42:03.106Z,10.45
2023-04-28T23:47:06.770Z,9.13
2023-04-28T23:52:09.971Z,10.32
2023-04-28T23:57:14.511Z,10.27
